sensor_id;sensor_type;location;lat;lon;timestamp;P1;durP1;ratioP1;P2;durP2;ratioP2
18102;SDS011;9178;51.120;6.192;2023-04-08T00:00:58;9.00;;;5.67;;
18102;SDS011;9178;51.120;6.192;2023-04-08T00:03:25;10.50;;;6.93;;
18102;SDS011;9178;51.120;6.192;2023-04-08T00:05:52;12.17;;;6.53;;
18102;SDS011;9178;51.120;6.192;2023-04-08T00:08:21;12.13;;;6.60;;
18102;SDS011;9178;51.120;6.192;2023-04-08T00:10:47;10.07;;;6.57;;
18102;SDS011;9178;51.120;6.192;2023-04-08T00:13:16;11.83;;;5.87;;
18102;SDS011;9178;51.120;6.192;2023-04-08T00:15:43;11.50;;;7.30;;
18102;SDS011;9178;51.120;6.192;2023-04-08T00:18:10;12.27;;;5.67;;
18102;SDS011;9178;51.120;6.192;2023-04-08T00:20:37;13.87;;;5.80;;
18102;SDS011;9178;51.120;6.192;2023-04-08T00:23:04;11.33;;;5.77;;
18102;SDS011;9178;51.120;6.192;2023-04-08T00:25:30;9.33;;;6.47;;
18102;SDS011;9178;51.120;6.192;2023-04-08T00:27:57;9.20;;;6.13;;
18102;SDS011;9178;51.120;6.192;2023-04-08T00:30:25;11.67;;;6.60;;
18102;SDS011;9178;51.120;6.192;2023-04-08T00:32:52;11.07;;;7.60;;
18102;SDS011;9178;51.120;6.192;2023-04-08T00:35:19;11.80;;;7.20;;
18102;SDS011;9178;51.120;6.192;2023-04-08T00:37:46;11.77;;;7.47;;
18102;SDS011;9178;51.120;6.192;2023-04-08T00:40:13;13.10;;;7.43;;
18102;SDS011;9178;51.120;6.192;2023-04-08T00:42:40;10.67;;;7.20;;
18102;SDS011;9178;51.120;6.192;2023-04-08T00:45:08;9.03;;;7.30;;
18102;SDS011;9178;51.120;6.192;2023-04-08T00:47:36;10.93;;;7.57;;
18102;SDS011;9178;51.120;6.192;2023-04-08T00:50:04;10.40;;;7.00;;
18102;SDS011;9178;51.120;6.192;2023-04-08T00:52:33;11.50;;;7.60;;
18102;SDS011;9178;51.120;6.192;2023-04-08T00:55:00;12.07;;;7.47;;
18102;SDS011;9178;51.120;6.192;2023-04-08T00:57:27;11.03;;;7.23;;
18102;SDS011;9178;51.120;6.192;2023-04-08T00:59:54;12.53;;;7.20;;
18102;SDS011;9178;51.120;6.192;2023-04-08T01:02:22;15.03;;;7.77;;
18102;SDS011;9178;51.120;6.192;2023-04-08T01:05:03;11.47;;;8.70;;
18102;SDS011;9178;51.120;6.192;2023-04-08T01:07:33;12.20;;;7.57;;
18102;SDS011;9178;51.120;6.192;2023-04-08T01:10:04;13.97;;;8.70;;
18102;SDS011;9178;51.120;6.192;2023-04-08T01:12:39;14.30;;;8.20;;
18102;SDS011;9178;51.120;6.192;2023-04-08T01:15:10;13.97;;;8.43;;
18102;SDS011;9178;51.120;6.192;2023-04-08T01:17:37;13.90;;;8.73;;
18102;SDS011;9178;51.120;6.192;2023-04-08T01:20:07;18.53;;;9.20;;
18102;SDS011;9178;51.120;6.192;2023-04-08T01:22:40;16.33;;;9.53;;
18102;SDS011;9178;51.120;6.192;2023-04-08T01:25:15;16.53;;;10.33;;
18102;SDS011;9178;51.120;6.192;2023-04-08T01:27:46;20.10;;;11.27;;
18102;SDS011;9178;51.120;6.192;2023-04-08T01:30:14;15.93;;;10.10;;
18102;SDS011;9178;51.120;6.192;2023-04-08T01:32:44;15.63;;;10.07;;
18102;SDS011;9178;51.120;6.192;2023-04-08T01:35:12;19.30;;;11.00;;
18102;SDS011;9178;51.120;6.192;2023-04-08T01:37:41;19.23;;;11.33;;
18102;SDS011;9178;51.120;6.192;2023-04-08T01:40:09;14.97;;;10.90;;
18102;SDS011;9178;51.120;6.192;2023-04-08T01:42:36;18.10;;;11.43;;
18102;SDS011;9178;51.120;6.192;2023-04-08T01:45:06;17.57;;;9.77;;
18102;SDS011;9178;51.120;6.192;2023-04-08T01:47:37;15.73;;;10.00;;
18102;SDS011;9178;51.120;6.192;2023-04-08T01:50:06;18.53;;;10.67;;
18102;SDS011;9178;51.120;6.192;2023-04-08T01:52:34;18.87;;;11.10;;
18102;SDS011;9178;51.120;6.192;2023-04-08T01:55:03;17.77;;;10.70;;
18102;SDS011;9178;51.120;6.192;2023-04-08T01:57:31;15.97;;;10.93;;
18102;SDS011;9178;51.120;6.192;2023-04-08T02:00:02;20.53;;;11.57;;
18102;SDS011;9178;51.120;6.192;2023-04-08T02:02:34;21.43;;;11.13;;
18102;SDS011;9178;51.120;6.192;2023-04-08T02:05:03;20.53;;;11.77;;
18102;SDS011;9178;51.120;6.192;2023-04-08T02:07:30;25.03;;;11.03;;
18102;SDS011;9178;51.120;6.192;2023-04-08T02:09:57;17.63;;;11.53;;
18102;SDS011;9178;51.120;6.192;2023-04-08T02:12:24;18.70;;;11.70;;
18102;SDS011;9178;51.120;6.192;2023-04-08T02:14:52;17.83;;;11.47;;
18102;SDS011;9178;51.120;6.192;2023-04-08T02:17:23;19.57;;;11.80;;
18102;SDS011;9178;51.120;6.192;2023-04-08T02:19:55;19.30;;;11.40;;
18102;SDS011;9178;51.120;6.192;2023-04-08T02:22:28;17.00;;;11.50;;
18102;SDS011;9178;51.120;6.192;2023-04-08T02:25:00;19.13;;;11.83;;
18102;SDS011;9178;51.120;6.192;2023-04-08T02:27:29;21.93;;;11.87;;
18102;SDS011;9178;51.120;6.192;2023-04-08T02:30:01;16.03;;;10.57;;
18102;SDS011;9178;51.120;6.192;2023-04-08T02:32:31;17.50;;;11.47;;
18102;SDS011;9178;51.120;6.192;2023-04-08T02:34:59;19.53;;;11.83;;
18102;SDS011;9178;51.120;6.192;2023-04-08T02:37:28;18.80;;;12.20;;
18102;SDS011;9178;51.120;6.192;2023-04-08T02:39:55;22.20;;;12.53;;
18102;SDS011;9178;51.120;6.192;2023-04-08T02:42:23;19.90;;;11.27;;
18102;SDS011;9178;51.120;6.192;2023-04-08T02:44:49;21.63;;;13.57;;
18102;SDS011;9178;51.120;6.192;2023-04-08T02:47:16;22.37;;;12.60;;
18102;SDS011;9178;51.120;6.192;2023-04-08T02:49:45;20.77;;;12.60;;
18102;SDS011;9178;51.120;6.192;2023-04-08T02:52:11;23.67;;;13.63;;
18102;SDS011;9178;51.120;6.192;2023-04-08T02:54:38;19.57;;;11.80;;
18102;SDS011;9178;51.120;6.192;2023-04-08T02:57:05;26.30;;;12.60;;
18102;SDS011;9178;51.120;6.192;2023-04-08T02:59:33;19.43;;;12.10;;
18102;SDS011;9178;51.120;6.192;2023-04-08T03:02:01;19.47;;;12.43;;
18102;SDS011;9178;51.120;6.192;2023-04-08T03:04:29;19.90;;;13.17;;
18102;SDS011;9178;51.120;6.192;2023-04-08T03:06:57;25.40;;;13.13;;
18102;SDS011;9178;51.120;6.192;2023-04-08T03:09:23;24.30;;;12.73;;
18102;SDS011;9178;51.120;6.192;2023-04-08T03:11:50;17.77;;;12.13;;
18102;SDS011;9178;51.120;6.192;2023-04-08T03:14:19;21.97;;;12.83;;
18102;SDS011;9178;51.120;6.192;2023-04-08T03:16:46;23.53;;;13.40;;
18102;SDS011;9178;51.120;6.192;2023-04-08T03:19:18;20.67;;;12.83;;
18102;SDS011;9178;51.120;6.192;2023-04-08T03:21:45;19.57;;;12.33;;
18102;SDS011;9178;51.120;6.192;2023-04-08T03:24:13;21.63;;;13.73;;
18102;SDS011;9178;51.120;6.192;2023-04-08T03:26:40;16.97;;;11.47;;
18102;SDS011;9178;51.120;6.192;2023-04-08T03:29:06;22.53;;;13.37;;
18102;SDS011;9178;51.120;6.192;2023-04-08T03:31:34;20.50;;;12.43;;
18102;SDS011;9178;51.120;6.192;2023-04-08T03:34:00;22.03;;;12.57;;
18102;SDS011;9178;51.120;6.192;2023-04-08T03:36:27;20.00;;;13.40;;
18102;SDS011;9178;51.120;6.192;2023-04-08T03:38:55;25.50;;;13.80;;
18102;SDS011;9178;51.120;6.192;2023-04-08T03:41:23;21.70;;;13.37;;
18102;SDS011;9178;51.120;6.192;2023-04-08T03:43:50;27.13;;;14.07;;
18102;SDS011;9178;51.120;6.192;2023-04-08T03:46:16;22.97;;;13.30;;
18102;SDS011;9178;51.120;6.192;2023-04-08T03:48:43;25.50;;;13.57;;
18102;SDS011;9178;51.120;6.192;2023-04-08T03:51:10;25.67;;;14.07;;
18102;SDS011;9178;51.120;6.192;2023-04-08T03:53:37;26.27;;;13.80;;
18102;SDS011;9178;51.120;6.192;2023-04-08T03:56:04;24.33;;;13.93;;
18102;SDS011;9178;51.120;6.192;2023-04-08T03:58:32;25.40;;;14.47;;
18102;SDS011;9178;51.120;6.192;2023-04-08T04:00:59;31.80;;;14.80;;
18102;SDS011;9178;51.120;6.192;2023-04-08T04:03:26;26.70;;;14.17;;
18102;SDS011;9178;51.120;6.192;2023-04-08T04:05:53;31.33;;;14.03;;
18102;SDS011;9178;51.120;6.192;2023-04-08T04:08:20;26.30;;;15.50;;
18102;SDS011;9178;51.120;6.192;2023-04-08T04:10:46;25.40;;;15.10;;
18102;SDS011;9178;51.120;6.192;2023-04-08T04:13:13;23.90;;;14.33;;
18102;SDS011;9178;51.120;6.192;2023-04-08T04:15:41;25.50;;;14.23;;
18102;SDS011;9178;51.120;6.192;2023-04-08T04:18:08;26.10;;;14.70;;
18102;SDS011;9178;51.120;6.192;2023-04-08T04:20:38;27.77;;;15.23;;
18102;SDS011;9178;51.120;6.192;2023-04-08T04:23:05;27.90;;;14.70;;
18102;SDS011;9178;51.120;6.192;2023-04-08T04:25:32;26.20;;;14.97;;
18102;SDS011;9178;51.120;6.192;2023-04-08T04:27:58;26.20;;;14.97;;
18102;SDS011;9178;51.120;6.192;2023-04-08T04:30:25;24.93;;;14.93;;
18102;SDS011;9178;51.120;6.192;2023-04-08T04:32:54;29.83;;;15.67;;
18102;SDS011;9178;51.120;6.192;2023-04-08T04:35:21;28.43;;;15.53;;
18102;SDS011;9178;51.120;6.192;2023-04-08T04:37:48;28.73;;;15.47;;
18102;SDS011;9178;51.120;6.192;2023-04-08T04:40:16;35.53;;;15.73;;
18102;SDS011;9178;51.120;6.192;2023-04-08T04:42:42;32.80;;;16.30;;
18102;SDS011;9178;51.120;6.192;2023-04-08T04:45:09;35.77;;;17.03;;
18102;SDS011;9178;51.120;6.192;2023-04-08T04:47:36;30.83;;;17.33;;
18102;SDS011;9178;51.120;6.192;2023-04-08T04:50:05;35.87;;;17.40;;
18102;SDS011;9178;51.120;6.192;2023-04-08T04:52:33;40.87;;;18.73;;
18102;SDS011;9178;51.120;6.192;2023-04-08T04:55:01;36.47;;;18.30;;
18102;SDS011;9178;51.120;6.192;2023-04-08T04:57:28;35.33;;;17.03;;
18102;SDS011;9178;51.120;6.192;2023-04-08T04:59:55;36.40;;;18.03;;
18102;SDS011;9178;51.120;6.192;2023-04-08T05:02:24;31.17;;;16.60;;
18102;SDS011;9178;51.120;6.192;2023-04-08T05:04:51;30.67;;;16.37;;
18102;SDS011;9178;51.120;6.192;2023-04-08T05:07:21;37.33;;;18.23;;
18102;SDS011;9178;51.120;6.192;2023-04-08T05:09:47;41.30;;;19.07;;
18102;SDS011;9178;51.120;6.192;2023-04-08T05:12:14;33.40;;;16.63;;
18102;SDS011;9178;51.120;6.192;2023-04-08T05:14:41;33.57;;;17.93;;
18102;SDS011;9178;51.120;6.192;2023-04-08T05:17:08;44.63;;;19.53;;
18102;SDS011;9178;51.120;6.192;2023-04-08T05:19:37;49.37;;;20.77;;
18102;SDS011;9178;51.120;6.192;2023-04-08T05:22:04;50.87;;;19.57;;
18102;SDS011;9178;51.120;6.192;2023-04-08T05:24:32;40.10;;;18.67;;
18102;SDS011;9178;51.120;6.192;2023-04-08T05:27:00;42.23;;;18.13;;
18102;SDS011;9178;51.120;6.192;2023-04-08T05:29:27;38.20;;;18.40;;
18102;SDS011;9178;51.120;6.192;2023-04-08T05:31:54;43.13;;;20.40;;
18102;SDS011;9178;51.120;6.192;2023-04-08T05:34:21;31.93;;;17.90;;
18102;SDS011;9178;51.120;6.192;2023-04-08T05:36:48;42.57;;;18.87;;
18102;SDS011;9178;51.120;6.192;2023-04-08T05:39:16;37.70;;;17.70;;
18102;SDS011;9178;51.120;6.192;2023-04-08T05:41:45;41.57;;;19.77;;
18102;SDS011;9178;51.120;6.192;2023-04-08T05:44:12;37.03;;;19.53;;
18102;SDS011;9178;51.120;6.192;2023-04-08T05:46:39;34.97;;;19.23;;
18102;SDS011;9178;51.120;6.192;2023-04-08T05:49:05;37.33;;;18.40;;
18102;SDS011;9178;51.120;6.192;2023-04-08T05:51:32;37.53;;;18.47;;
18102;SDS011;9178;51.120;6.192;2023-04-08T05:53:59;36.93;;;18.23;;
18102;SDS011;9178;51.120;6.192;2023-04-08T05:56:26;29.43;;;16.33;;
18102;SDS011;9178;51.120;6.192;2023-04-08T05:58:54;31.70;;;17.77;;
18102;SDS011;9178;51.120;6.192;2023-04-08T06:01:21;36.23;;;18.40;;
18102;SDS011;9178;51.120;6.192;2023-04-08T06:03:48;38.40;;;18.27;;
18102;SDS011;9178;51.120;6.192;2023-04-08T06:06:16;36.53;;;18.60;;
18102;SDS011;9178;51.120;6.192;2023-04-08T06:08:43;36.80;;;18.77;;
18102;SDS011;9178;51.120;6.192;2023-04-08T06:11:11;32.47;;;17.90;;
18102;SDS011;9178;51.120;6.192;2023-04-08T06:13:38;33.17;;;17.70;;
18102;SDS011;9178;51.120;6.192;2023-04-08T06:18:48;33.20;;;17.80;;
18102;SDS011;9178;51.120;6.192;2023-04-08T06:21:14;32.83;;;17.33;;
18102;SDS011;9178;51.120;6.192;2023-04-08T06:23:41;36.13;;;18.53;;
18102;SDS011;9178;51.120;6.192;2023-04-08T06:26:08;29.93;;;17.33;;
18102;SDS011;9178;51.120;6.192;2023-04-08T06:28:35;36.47;;;18.77;;
18102;SDS011;9178;51.120;6.192;2023-04-08T06:31:02;34.63;;;18.10;;
18102;SDS011;9178;51.120;6.192;2023-04-08T06:33:30;31.70;;;17.73;;
18102;SDS011;9178;51.120;6.192;2023-04-08T06:36:00;30.87;;;18.10;;
18102;SDS011;9178;51.120;6.192;2023-04-08T06:38:28;34.63;;;18.50;;
18102;SDS011;9178;51.120;6.192;2023-04-08T06:40:55;31.37;;;17.10;;
18102;SDS011;9178;51.120;6.192;2023-04-08T06:43:22;30.17;;;17.37;;
18102;SDS011;9178;51.120;6.192;2023-04-08T06:45:48;33.93;;;19.23;;
18102;SDS011;9178;51.120;6.192;2023-04-08T06:48:16;34.30;;;19.57;;
18102;SDS011;9178;51.120;6.192;2023-04-08T06:50:44;34.07;;;19.50;;
18102;SDS011;9178;51.120;6.192;2023-04-08T06:53:11;33.30;;;19.20;;
18102;SDS011;9178;51.120;6.192;2023-04-08T06:55:37;38.03;;;20.73;;
18102;SDS011;9178;51.120;6.192;2023-04-08T06:58:04;36.00;;;20.07;;
18102;SDS011;9178;51.120;6.192;2023-04-08T07:00:31;37.10;;;20.77;;
18102;SDS011;9178;51.120;6.192;2023-04-08T07:02:58;36.67;;;20.90;;
18102;SDS011;9178;51.120;6.192;2023-04-08T07:05:25;36.10;;;21.40;;
18102;SDS011;9178;51.120;6.192;2023-04-08T07:07:53;36.73;;;20.60;;
18102;SDS011;9178;51.120;6.192;2023-04-08T07:10:20;38.03;;;21.40;;
18102;SDS011;9178;51.120;6.192;2023-04-08T07:12:47;40.53;;;23.33;;
18102;SDS011;9178;51.120;6.192;2023-04-08T07:15:14;37.57;;;22.10;;
18102;SDS011;9178;51.120;6.192;2023-04-08T07:17:40;39.27;;;22.67;;
18102;SDS011;9178;51.120;6.192;2023-04-08T07:20:07;41.53;;;22.33;;
18102;SDS011;9178;51.120;6.192;2023-04-08T07:22:35;38.57;;;22.67;;
18102;SDS011;9178;51.120;6.192;2023-04-08T07:25:03;40.40;;;22.57;;
18102;SDS011;9178;51.120;6.192;2023-04-08T07:27:30;41.43;;;22.97;;
18102;SDS011;9178;51.120;6.192;2023-04-08T07:29:58;40.40;;;23.13;;
18102;SDS011;9178;51.120;6.192;2023-04-08T07:32:25;44.87;;;23.67;;
18102;SDS011;9178;51.120;6.192;2023-04-08T07:34:52;39.20;;;22.80;;
18102;SDS011;9178;51.120;6.192;2023-04-08T07:37:19;43.03;;;24.20;;
18102;SDS011;9178;51.120;6.192;2023-04-08T07:39:46;46.27;;;25.17;;
18102;SDS011;9178;51.120;6.192;2023-04-08T07:42:14;40.73;;;23.33;;
18102;SDS011;9178;51.120;6.192;2023-04-08T07:44:42;41.17;;;23.03;;
18102;SDS011;9178;51.120;6.192;2023-04-08T07:47:11;46.20;;;24.83;;
18102;SDS011;9178;51.120;6.192;2023-04-08T07:49:38;44.80;;;23.97;;
18102;SDS011;9178;51.120;6.192;2023-04-08T07:52:05;42.77;;;24.13;;
18102;SDS011;9178;51.120;6.192;2023-04-08T07:54:32;46.80;;;24.30;;
18102;SDS011;9178;51.120;6.192;2023-04-08T07:56:59;37.20;;;21.63;;
18102;SDS011;9178;51.120;6.192;2023-04-08T07:59:28;37.97;;;21.87;;
18102;SDS011;9178;51.120;6.192;2023-04-08T08:01:54;36.27;;;21.37;;
18102;SDS011;9178;51.120;6.192;2023-04-08T08:04:21;37.43;;;22.07;;
18102;SDS011;9178;51.120;6.192;2023-04-08T08:06:49;36.37;;;21.53;;
18102;SDS011;9178;51.120;6.192;2023-04-08T08:09:17;36.30;;;21.80;;
18102;SDS011;9178;51.120;6.192;2023-04-08T08:11:44;34.83;;;21.03;;
18102;SDS011;9178;51.120;6.192;2023-04-08T08:14:12;35.23;;;22.23;;
18102;SDS011;9178;51.120;6.192;2023-04-08T08:16:41;39.33;;;23.13;;
18102;SDS011;9178;51.120;6.192;2023-04-08T08:19:09;41.07;;;23.47;;
18102;SDS011;9178;51.120;6.192;2023-04-08T08:21:37;38.43;;;23.07;;
18102;SDS011;9178;51.120;6.192;2023-04-08T08:24:04;36.57;;;22.90;;
18102;SDS011;9178;51.120;6.192;2023-04-08T08:26:33;40.87;;;23.73;;
18102;SDS011;9178;51.120;6.192;2023-04-08T08:29:00;41.13;;;23.20;;
18102;SDS011;9178;51.120;6.192;2023-04-08T08:31:27;39.10;;;23.80;;
18102;SDS011;9178;51.120;6.192;2023-04-08T08:33:55;39.67;;;23.50;;
18102;SDS011;9178;51.120;6.192;2023-04-08T08:36:22;39.77;;;23.63;;
18102;SDS011;9178;51.120;6.192;2023-04-08T08:38:49;40.87;;;24.47;;
18102;SDS011;9178;51.120;6.192;2023-04-08T08:41:18;43.73;;;24.07;;
18102;SDS011;9178;51.120;6.192;2023-04-08T08:43:45;36.80;;;23.20;;
18102;SDS011;9178;51.120;6.192;2023-04-08T08:46:14;34.53;;;22.13;;
18102;SDS011;9178;51.120;6.192;2023-04-08T08:48:41;38.27;;;23.10;;
18102;SDS011;9178;51.120;6.192;2023-04-08T08:51:11;35.90;;;22.67;;
18102;SDS011;9178;51.120;6.192;2023-04-08T08:53:38;39.50;;;22.57;;
18102;SDS011;9178;51.120;6.192;2023-04-08T08:56:09;35.27;;;22.07;;
18102;SDS011;9178;51.120;6.192;2023-04-08T08:58:36;37.47;;;22.37;;
18102;SDS011;9178;51.120;6.192;2023-04-08T09:04:05;34.07;;;22.17;;
18102;SDS011;9178;51.120;6.192;2023-04-08T09:06:34;31.73;;;21.30;;
18102;SDS011;9178;51.120;6.192;2023-04-08T09:09:01;34.93;;;23.37;;
18102;SDS011;9178;51.120;6.192;2023-04-08T09:11:30;35.63;;;22.83;;
18102;SDS011;9178;51.120;6.192;2023-04-08T09:13:57;35.40;;;22.47;;
18102;SDS011;9178;51.120;6.192;2023-04-08T09:16:24;32.58;;;22.77;;
18102;SDS011;9178;51.120;6.192;2023-04-08T09:18:51;36.38;;;24.90;;
18102;SDS011;9178;51.120;6.192;2023-04-08T09:21:20;32.25;;;23.70;;
18102;SDS011;9178;51.120;6.192;2023-04-08T09:23:50;34.95;;;23.35;;
18102;SDS011;9178;51.120;6.192;2023-04-08T09:26:17;35.40;;;24.30;;
18102;SDS011;9178;51.120;6.192;2023-04-08T09:28:56;33.17;;;23.63;;
18102;SDS011;9178;51.120;6.192;2023-04-08T09:31:24;33.20;;;23.13;;
18102;SDS011;9178;51.120;6.192;2023-04-08T09:33:52;30.88;;;22.42;;
18102;SDS011;9178;51.120;6.192;2023-04-08T09:36:20;30.70;;;21.70;;
18102;SDS011;9178;51.120;6.192;2023-04-08T09:38:47;28.27;;;20.33;;
18102;SDS011;9178;51.120;6.192;2023-04-08T09:41:16;29.45;;;21.17;;
18102;SDS011;9178;51.120;6.192;2023-04-08T09:43:46;30.13;;;21.20;;
18102;SDS011;9178;51.120;6.192;2023-04-08T09:46:14;27.77;;;20.48;;
18102;SDS011;9178;51.120;6.192;2023-04-08T09:48:45;28.60;;;21.60;;
18102;SDS011;9178;51.120;6.192;2023-04-08T09:51:18;30.38;;;21.52;;
18102;SDS011;9178;51.120;6.192;2023-04-08T09:53:47;31.08;;;23.00;;
18102;SDS011;9178;51.120;6.192;2023-04-08T09:56:20;29.65;;;21.52;;
18102;SDS011;9178;51.120;6.192;2023-04-08T09:58:50;29.35;;;21.48;;
18102;SDS011;9178;51.120;6.192;2023-04-08T10:01:24;26.98;;;21.17;;
18102;SDS011;9178;51.120;6.192;2023-04-08T10:03:55;29.80;;;21.58;;
18102;SDS011;9178;51.120;6.192;2023-04-08T10:06:25;31.52;;;23.92;;
18102;SDS011;9178;51.120;6.192;2023-04-08T10:08:56;30.50;;;23.30;;
18102;SDS011;9178;51.120;6.192;2023-04-08T10:11:24;31.63;;;23.40;;
18102;SDS011;9178;51.120;6.192;2023-04-08T10:13:51;29.48;;;22.17;;
18102;SDS011;9178;51.120;6.192;2023-04-08T10:16:19;31.17;;;23.23;;
18102;SDS011;9178;51.120;6.192;2023-04-08T10:18:48;29.73;;;22.02;;
18102;SDS011;9178;51.120;6.192;2023-04-08T10:21:35;28.95;;;22.85;;
18102;SDS011;9178;51.120;6.192;2023-04-08T10:24:07;31.20;;;22.83;;
18102;SDS011;9178;51.120;6.192;2023-04-08T10:26:36;33.92;;;25.88;;
18102;SDS011;9178;51.120;6.192;2023-04-08T10:32:07;32.35;;;24.35;;
18102;SDS011;9178;51.120;6.192;2023-04-08T10:34:52;35.60;;;26.08;;
18102;SDS011;9178;51.120;6.192;2023-04-08T10:37:19;35.13;;;26.17;;
18102;SDS011;9178;51.120;6.192;2023-04-08T10:39:51;34.97;;;24.35;;
18102;SDS011;9178;51.120;6.192;2023-04-08T10:42:25;33.03;;;24.50;;
18102;SDS011;9178;51.120;6.192;2023-04-08T10:44:53;26.67;;;20.73;;
18102;SDS011;9178;51.120;6.192;2023-04-08T10:47:24;28.27;;;20.60;;
18102;SDS011;9178;51.120;6.192;2023-04-08T10:49:52;28.58;;;21.45;;
18102;SDS011;9178;51.120;6.192;2023-04-08T10:52:19;28.75;;;21.42;;
18102;SDS011;9178;51.120;6.192;2023-04-08T10:54:47;29.25;;;20.95;;
18102;SDS011;9178;51.120;6.192;2023-04-08T10:57:15;24.50;;;18.33;;
18102;SDS011;9178;51.120;6.192;2023-04-08T10:59:49;26.25;;;19.13;;
18102;SDS011;9178;51.120;6.192;2023-04-08T11:02:16;24.08;;;18.33;;
18102;SDS011;9178;51.120;6.192;2023-04-08T11:04:47;20.65;;;16.27;;
18102;SDS011;9178;51.120;6.192;2023-04-08T11:07:14;17.27;;;13.77;;
18102;SDS011;9178;51.120;6.192;2023-04-08T11:09:41;17.27;;;14.30;;
18102;SDS011;9178;51.120;6.192;2023-04-08T11:12:08;17.05;;;14.27;;
18102;SDS011;9178;51.120;6.192;2023-04-08T11:14:37;15.15;;;12.65;;
18102;SDS011;9178;51.120;6.192;2023-04-08T11:17:06;14.55;;;12.30;;
18102;SDS011;9178;51.120;6.192;2023-04-08T11:19:34;14.52;;;11.82;;
18102;SDS011;9178;51.120;6.192;2023-04-08T11:22:02;14.57;;;11.68;;
18102;SDS011;9178;51.120;6.192;2023-04-08T11:24:31;13.75;;;11.80;;
18102;SDS011;9178;51.120;6.192;2023-04-08T11:26:58;12.52;;;11.05;;
18102;SDS011;9178;51.120;6.192;2023-04-08T11:29:26;12.40;;;11.07;;
18102;SDS011;9178;51.120;6.192;2023-04-08T11:31:55;13.50;;;11.18;;
18102;SDS011;9178;51.120;6.192;2023-04-08T11:34:22;12.50;;;10.52;;
18102;SDS011;9178;51.120;6.192;2023-04-08T11:36:50;12.93;;;11.57;;
18102;SDS011;9178;51.120;6.192;2023-04-08T11:39:17;14.40;;;12.15;;
18102;SDS011;9178;51.120;6.192;2023-04-08T11:41:48;14.35;;;11.98;;
18102;SDS011;9178;51.120;6.192;2023-04-08T11:44:15;12.20;;;10.90;;
18102;SDS011;9178;51.120;6.192;2023-04-08T11:46:50;13.45;;;11.50;;
18102;SDS011;9178;51.120;6.192;2023-04-08T11:49:20;15.05;;;12.52;;
18102;SDS011;9178;51.120;6.192;2023-04-08T11:51:53;13.60;;;10.90;;
18102;SDS011;9178;51.120;6.192;2023-04-08T11:54:26;12.45;;;11.00;;
18102;SDS011;9178;51.120;6.192;2023-04-08T11:56:53;14.73;;;10.98;;
18102;SDS011;9178;51.120;6.192;2023-04-08T11:59:22;12.60;;;11.27;;
18102;SDS011;9178;51.120;6.192;2023-04-08T12:01:50;11.60;;;9.93;;
18102;SDS011;9178;51.120;6.192;2023-04-08T12:04:17;11.73;;;10.45;;
18102;SDS011;9178;51.120;6.192;2023-04-08T12:06:45;9.80;;;8.80;;
18102;SDS011;9178;51.120;6.192;2023-04-08T12:09:12;11.23;;;9.80;;
18102;SDS011;9178;51.120;6.192;2023-04-08T12:11:39;11.63;;;10.40;;
18102;SDS011;9178;51.120;6.192;2023-04-08T12:14:06;11.75;;;10.40;;
18102;SDS011;9178;51.120;6.192;2023-04-08T12:16:33;10.82;;;9.63;;
18102;SDS011;9178;51.120;6.192;2023-04-08T12:19:00;12.70;;;9.50;;
18102;SDS011;9178;51.120;6.192;2023-04-08T12:21:27;10.38;;;9.32;;
18102;SDS011;9178;51.120;6.192;2023-04-08T12:23:55;10.85;;;9.20;;
18102;SDS011;9178;51.120;6.192;2023-04-08T12:26:22;10.43;;;9.07;;
18102;SDS011;9178;51.120;6.192;2023-04-08T12:28:49;10.00;;;8.93;;
18102;SDS011;9178;51.120;6.192;2023-04-08T12:31:16;10.82;;;9.23;;
18102;SDS011;9178;51.120;6.192;2023-04-08T12:33:43;10.38;;;9.27;;
18102;SDS011;9178;51.120;6.192;2023-04-08T12:36:09;10.93;;;9.75;;
18102;SDS011;9178;51.120;6.192;2023-04-08T12:38:36;10.13;;;9.10;;
18102;SDS011;9178;51.120;6.192;2023-04-08T12:41:05;9.80;;;8.80;;
18102;SDS011;9178;51.120;6.192;2023-04-08T12:43:31;10.20;;;9.20;;
18102;SDS011;9178;51.120;6.192;2023-04-08T12:45:58;9.65;;;8.65;;
18102;SDS011;9178;51.120;6.192;2023-04-08T12:48:26;9.90;;;8.73;;
18102;SDS011;9178;51.120;6.192;2023-04-08T12:50:52;9.52;;;8.52;;
18102;SDS011;9178;51.120;6.192;2023-04-08T12:53:20;11.00;;;9.63;;
18102;SDS011;9178;51.120;6.192;2023-04-08T12:55:47;10.52;;;9.30;;
18102;SDS011;9178;51.120;6.192;2023-04-08T12:58:15;9.40;;;8.50;;
18102;SDS011;9178;51.120;6.192;2023-04-08T13:00:42;10.30;;;9.27;;
18102;SDS011;9178;51.120;6.192;2023-04-08T13:03:10;10.95;;;9.65;;
18102;SDS011;9178;51.120;6.192;2023-04-08T13:05:37;10.90;;;9.52;;
18102;SDS011;9178;51.120;6.192;2023-04-08T13:08:04;11.82;;;10.65;;
18102;SDS011;9178;51.120;6.192;2023-04-08T13:10:31;10.70;;;9.52;;
18102;SDS011;9178;51.120;6.192;2023-04-08T13:12:58;11.07;;;9.88;;
18102;SDS011;9178;51.120;6.192;2023-04-08T13:15:26;10.20;;;8.43;;
18102;SDS011;9178;51.120;6.192;2023-04-08T13:17:53;9.82;;;8.82;;
18102;SDS011;9178;51.120;6.192;2023-04-08T13:20:20;9.43;;;8.52;;
18102;SDS011;9178;51.120;6.192;2023-04-08T13:22:49;9.90;;;8.88;;
18102;SDS011;9178;51.120;6.192;2023-04-08T13:25:16;9.68;;;8.68;;
18102;SDS011;9178;51.120;6.192;2023-04-08T13:27:43;9.57;;;8.20;;
18102;SDS011;9178;51.120;6.192;2023-04-08T13:30:10;9.75;;;8.25;;
18102;SDS011;9178;51.120;6.192;2023-04-08T13:32:39;8.55;;;7.65;;
18102;SDS011;9178;51.120;6.192;2023-04-08T13:35:06;11.45;;;7.93;;
18102;SDS011;9178;51.120;6.192;2023-04-08T13:37:33;8.57;;;7.78;;
18102;SDS011;9178;51.120;6.192;2023-04-08T13:40:00;10.38;;;8.00;;
18102;SDS011;9178;51.120;6.192;2023-04-08T13:42:27;8.75;;;7.85;;
18102;SDS011;9178;51.120;6.192;2023-04-08T13:44:55;9.40;;;8.43;;
18102;SDS011;9178;51.120;6.192;2023-04-08T13:47:22;9.13;;;8.23;;
18102;SDS011;9178;51.120;6.192;2023-04-08T13:49:50;9.00;;;8.10;;
18102;SDS011;9178;51.120;6.192;2023-04-08T13:52:17;9.07;;;7.90;;
18102;SDS011;9178;51.120;6.192;2023-04-08T13:54:44;9.73;;;8.73;;
18102;SDS011;9178;51.120;6.192;2023-04-08T13:57:11;9.02;;;8.13;;
18102;SDS011;9178;51.120;6.192;2023-04-08T13:59:38;9.43;;;8.45;;
18102;SDS011;9178;51.120;6.192;2023-04-08T14:02:05;9.63;;;8.73;;
18102;SDS011;9178;51.120;6.192;2023-04-08T14:04:32;9.25;;;8.30;;
18102;SDS011;9178;51.120;6.192;2023-04-08T14:07:00;9.40;;;8.45;;
18102;SDS011;9178;51.120;6.192;2023-04-08T14:09:27;9.98;;;8.32;;
18102;SDS011;9178;51.120;6.192;2023-04-08T14:11:54;9.18;;;8.10;;
18102;SDS011;9178;51.120;6.192;2023-04-08T14:14:23;10.57;;;8.48;;
18102;SDS011;9178;51.120;6.192;2023-04-08T14:16:49;9.52;;;8.35;;
18102;SDS011;9178;51.120;6.192;2023-04-08T14:19:16;8.27;;;7.47;;
18102;SDS011;9178;51.120;6.192;2023-04-08T14:21:43;9.05;;;8.15;;
18102;SDS011;9178;51.120;6.192;2023-04-08T14:24:11;8.77;;;7.93;;
18102;SDS011;9178;51.120;6.192;2023-04-08T14:26:38;8.20;;;7.40;;
18102;SDS011;9178;51.120;6.192;2023-04-08T14:29:05;8.82;;;7.55;;
18102;SDS011;9178;51.120;6.192;2023-04-08T14:31:32;7.82;;;6.85;;
18102;SDS011;9178;51.120;6.192;2023-04-08T14:34:00;8.63;;;7.18;;
18102;SDS011;9178;51.120;6.192;2023-04-08T14:36:27;8.52;;;7.13;;
18102;SDS011;9178;51.120;6.192;2023-04-08T14:38:55;7.28;;;6.50;;
18102;SDS011;9178;51.120;6.192;2023-04-08T14:41:24;7.45;;;6.70;;
18102;SDS011;9178;51.120;6.192;2023-04-08T14:43:51;7.05;;;6.35;;
18102;SDS011;9178;51.120;6.192;2023-04-08T14:46:18;8.37;;;7.00;;
18102;SDS011;9178;51.120;6.192;2023-04-08T14:48:45;8.57;;;7.30;;
18102;SDS011;9178;51.120;6.192;2023-04-08T14:51:12;7.53;;;6.60;;
18102;SDS011;9178;51.120;6.192;2023-04-08T14:53:38;6.93;;;6.22;;